Time;durP1;ratioP1;P1;durP2;ratioP2;P2;SDS_P1;SDS_P2;PMS_P1;PMS_P2;Temp;Humidity;BMP_temperature;BMP_pressure;BME280_temperature;BME280_humidity;BME280_pressure;Samples;Min_cycle;Max_cycle;Signal;HPM_P1;HPM_P2
2023/07/24 00:02:14;;;;;;;2.72;2.47;;;;;;;;;;5119934;28;20229;-63
2023/07/24 00:04:42;;;;;;;2.60;2.40;;;;;;;;;;5120031;28;20207;-63
2023/07/24 00:07:10;;;;;;;3.03;2.05;;;;;;;;;;5107357;28;20264;-64
2023/07/24 00:09:38;;;;;;;3.25;2.30;;;;;;;;;;5099621;28;20290;-63
2023/07/24 00:12:08;;;;;;;2.60;2.22;;;;;;;;;;5099281;28;20587;-63
2023/07/24 00:14:36;;;;;;;2.40;2.20;;;;;;;;;;5115926;28;20207;-63
2023/07/24 00:17:03;;;;;;;2.50;2.30;;;;;;;;;;5119735;28;20207;-63
2023/07/24 00:19:31;;;;;;;2.63;2.42;;;;;;;;;;5119912;28;20203;-63
2023/07/24 00:21:58;;;;;;;2.60;2.40;;;;;;;;;;5119700;28;20209;-63
2023/07/24 00:24:26;;;;;;;2.40;2.20;;;;;;;;;;5119639;28;20256;-63
2023/07/24 00:26:54;;;;;;;2.83;2.45;;;;;;;;;;5119951;28;20691;-63
2023/07/24 00:29:23;;;;;;;2.67;2.35;;;;;;;;;;5120206;28;20199;-63
2023/07/24 00:31:50;;;;;;;2.25;2.05;;;;;;;;;;5120407;28;20469;-63
2023/07/24 00:34:18;;;;;;;2.40;2.20;;;;;;;;;;5119928;28;20592;-63
2023/07/24 00:36:46;;;;;;;2.50;2.30;;;;;;;;;;5119468;28;20502;-62
2023/07/24 00:39:13;;;;;;;2.10;2.00;;;;;;;;;;5119729;28;20231;-62
2023/07/24 00:41:41;;;;;;;2.33;2.13;;;;;;;;;;5119493;28;20233;-62
2023/07/24 00:44:08;;;;;;;2.22;2.03;;;;;;;;;;5119980;28;20202;-62
2023/07/24 00:46:38;;;;;;;2.33;2.13;;;;;;;;;;5119988;28;20213;-63
2023/07/24 00:49:06;;;;;;;3.20;2.40;;;;;;;;;;5119695;28;20210;-62
2023/07/24 00:51:34;;;;;;;2.53;2.33;;;;;;;;;;5119870;28;20238;-63
2023/07/24 00:54:03;;;;;;;2.22;2.03;;;;;;;;;;5119271;28;20203;-62
2023/07/24 00:56:31;;;;;;;2.80;2.50;;;;;;;;;;5119933;28;20202;-62
2023/07/24 00:58:58;;;;;;;2.58;2.38;;;;;;;;;;5119089;28;20237;-63
2023/07/24 01:01:27;;;;;;;2.40;2.20;;;;;;;;;;5119617;28;20213;-62
2023/07/24 01:03:56;;;;;;;2.47;2.28;;;;;;;;;;5119431;28;20210;-62
2023/07/24 01:06:25;;;;;;;3.58;2.55;;;;;;;;;;5119156;28;20528;-63
2023/07/24 01:08:53;;;;;;;2.42;2.22;;;;;;;;;;5118584;28;20207;-63
2023/07/24 01:11:21;;;;;;;2.75;2.10;;;;;;;;;;5119647;28;20203;-62
2023/07/24 01:13:52;;;;;;;2.70;2.50;;;;;;;;;;5118973;28;20691;-63
2023/07/24 01:16:20;;;;;;;2.70;2.28;;;;;;;;;;5119149;28;20199;-63
2023/07/24 01:18:49;;;;;;;3.00;2.50;;;;;;;;;;5118661;28;20219;-63
2023/07/24 01:21:20;;;;;;;2.40;2.20;;;;;;;;;;5118999;28;20229;-64
2023/07/24 01:23:57;;;;;;;2.83;2.60;;;;;;;;;;5118573;28;20301;-64
2023/07/24 01:26:26;;;;;;;2.80;2.28;;;;;;;;;;5119677;28;20202;-63
2023/07/24 01:28:54;;;;;;;2.38;2.17;;;;;;;;;;5119102;28;20203;-64
2023/07/24 01:31:21;;;;;;;2.70;2.50;;;;;;;;;;5118605;28;20298;-63
2023/07/24 01:33:49;;;;;;;2.92;2.30;;;;;;;;;;5118697;28;20203;-63
2023/07/24 01:36:17;;;;;;;2.70;2.50;;;;;;;;;;5119377;28;20225;-62
2023/07/24 01:38:44;;;;;;;2.53;2.15;;;;;;;;;;5118670;28;20227;-63
2023/07/24 01:41:13;;;;;;;2.60;2.40;;;;;;;;;;5116995;28;20207;-63
2023/07/24 01:43:43;;;;;;;2.50;2.30;;;;;;;;;;5116369;28;20197;-63
2023/07/24 01:46:11;;;;;;;2.58;2.33;;;;;;;;;;5118254;28;20194;-63
2023/07/24 01:48:38;;;;;;;2.88;2.45;;;;;;;;;;5118256;28;20620;-62
2023/07/24 01:51:06;;;;;;;2.40;2.20;;;;;;;;;;5118852;28;20203;-62
2023/07/24 01:53:33;;;;;;;2.78;2.47;;;;;;;;;;5119186;28;20283;-62
2023/07/24 01:56:01;;;;;;;2.55;2.30;;;;;;;;;;5115161;28;20265;-62
2023/07/24 01:58:28;;;;;;;2.50;2.30;;;;;;;;;;5098653;28;20235;-62
2023/07/24 02:00:58;;;;;;;2.53;2.28;;;;;;;;;;5097938;28;20208;-63
2023/07/24 02:03:25;;;;;;;2.40;2.20;;;;;;;;;;5098111;28;20204;-63
2023/07/24 02:05:53;;;;;;;2.85;2.30;;;;;;;;;;5097721;28;20214;-63
2023/07/24 02:08:20;;;;;;;2.50;2.30;;;;;;;;;;5098227;28;20199;-62
2023/07/24 02:10:50;;;;;;;2.67;2.47;;;;;;;;;;5097218;28;20504;-62
2023/07/24 02:13:18;;;;;;;2.60;2.40;;;;;;;;;;5098182;28;20243;-62
2023/07/24 02:15:45;;;;;;;3.10;2.80;;;;;;;;;;5098037;28;20203;-62
2023/07/24 02:18:14;;;;;;;2.65;2.45;;;;;;;;;;5097756;28;20227;-62
2023/07/24 02:20:42;;;;;;;2.88;2.60;;;;;;;;;;5097853;28;20211;-62
2023/07/24 02:23:11;;;;;;;3.15;2.40;;;;;;;;;;5110221;28;20202;-63
2023/07/24 02:25:39;;;;;;;2.45;2.25;;;;;;;;;;5118391;28;20684;-62
2023/07/24 02:28:09;;;;;;;2.72;2.53;;;;;;;;;;5117959;28;20199;-63
2023/07/24 02:30:39;;;;;;;2.88;2.67;;;;;;;;;;5118341;28;20259;-63
2023/07/24 02:33:07;;;;;;;3.28;2.67;;;;;;;;;;5100157;28;20209;-63
2023/07/24 02:35:41;;;;;;;2.65;2.45;;;;;;;;;;5118127;28;20299;-63
2023/07/24 02:38:09;;;;;;;2.65;2.42;;;;;;;;;;5118048;28;20234;-63
2023/07/24 02:40:37;;;;;;;2.80;2.60;;;;;;;;;;5118360;28;20284;-63
2023/07/24 02:43:04;;;;;;;3.45;2.60;;;;;;;;;;5118169;28;20203;-62
2023/07/24 02:45:32;;;;;;;2.65;2.40;;;;;;;;;;5117774;28;20210;-62
2023/07/24 02:48:00;;;;;;;2.63;2.40;;;;;;;;;;5117464;28;20203;-63
2023/07/24 02:50:28;;;;;;;2.42;2.15;;;;;;;;;;5117518;28;20619;-62
2023/07/24 02:52:56;;;;;;;2.70;2.50;;;;;;;;;;5116973;28;20663;-62
2023/07/24 02:55:24;;;;;;;2.88;2.67;;;;;;;;;;5117197;28;20267;-62
2023/07/24 02:57:52;;;;;;;4.40;2.40;;;;;;;;;;5109165;28;20586;-62
2023/07/24 03:00:19;;;;;;;2.63;2.42;;;;;;;;;;5097102;28;20634;-62
2023/07/24 03:02:47;;;;;;;2.80;2.60;;;;;;;;;;5097652;28;20215;-62
2023/07/24 03:05:14;;;;;;;4.50;2.65;;;;;;;;;;5097023;28;20214;-62
2023/07/24 03:07:42;;;;;;;2.83;2.42;;;;;;;;;;5096386;28;20537;-62
2023/07/24 03:10:11;;;;;;;3.58;2.70;;;;;;;;;;5097627;28;20588;-62
2023/07/24 03:12:39;;;;;;;2.88;2.67;;;;;;;;;;5097311;28;20810;-62
2023/07/24 03:15:07;;;;;;;3.33;2.80;;;;;;;;;;5097103;28;20212;-63
2023/07/24 03:17:35;;;;;;;2.80;2.60;;;;;;;;;;5097123;28;20242;-63
2023/07/24 03:20:12;;;;;;;3.92;2.72;;;;;;;;;;5096542;28;20235;-62
2023/07/24 03:22:40;;;;;;;2.80;2.55;;;;;;;;;;5096614;28;20293;-63
2023/07/24 03:25:08;;;;;;;2.70;2.50;;;;;;;;;;5097029;28;20203;-63
2023/07/24 03:27:37;;;;;;;2.80;2.60;;;;;;;;;;5096364;28;20595;-63
2023/07/24 03:30:06;;;;;;;2.97;2.78;;;;;;;;;;5096698;28;20207;-63
2023/07/24 03:32:34;;;;;;;2.88;2.65;;;;;;;;;;5097152;28;20211;-62
2023/07/24 03:35:02;;;;;;;2.75;2.55;;;;;;;;;;5100145;28;20305;-62
2023/07/24 03:37:29;;;;;;;2.90;2.70;;;;;;;;;;5111040;28;20203;-66
2023/07/24 03:39:57;;;;;;;2.80;2.55;;;;;;;;;;5121192;28;20226;-62
2023/07/24 03:42:28;;;;;;;3.28;2.90;;;;;;;;;;5121043;28;20297;-63
2023/07/24 03:44:57;;;;;;;3.53;2.78;;;;;;;;;;5120710;28;20268;-63
2023/07/24 03:47:25;;;;;;;2.80;2.58;;;;;;;;;;5120990;28;20499;-62
2023/07/24 03:49:52;;;;;;;2.70;2.50;;;;;;;;;;5120496;28;20191;-62
2023/07/24 03:52:20;;;;;;;2.63;2.42;;;;;;;;;;5120898;28;20203;-62
2023/07/24 03:54:48;;;;;;;3.00;2.70;;;;;;;;;;5120229;28;20331;-62
2023/07/24 03:57:15;;;;;;;3.65;2.70;;;;;;;;;;5120708;28;20488;-62
2023/07/24 03:59:43;;;;;;;3.42;2.92;;;;;;;;;;5121106;28;20231;-62
2023/07/24 04:02:12;;;;;;;3.40;3.10;;;;;;;;;;5120438;28;20233;-62
2023/07/24 04:04:39;;;;;;;3.03;2.65;;;;;;;;;;5121193;28;20583;-62
2023/07/24 04:07:07;;;;;;;2.80;2.60;;;;;;;;;;5119789;28;20209;-62
2023/07/24 04:09:34;;;;;;;3.28;2.97;;;;;;;;;;5119568;28;20286;-62
2023/07/24 04:12:02;;;;;;;3.00;2.70;;;;;;;;;;5120429;28;20591;-63
2023/07/24 04:14:29;;;;;;;2.80;2.60;;;;;;;;;;5120227;28;20306;-62
2023/07/24 04:16:57;;;;;;;3.30;3.00;;;;;;;;;;5120275;28;20529;-62
2023/07/24 04:19:26;;;;;;;3.08;2.83;;;;;;;;;;5120089;28;20496;-62
2023/07/24 04:21:53;;;;;;;3.60;2.92;;;;;;;;;;5120596;28;20253;-62
2023/07/24 04:24:21;;;;;;;3.50;3.17;;;;;;;;;;5120150;28;20246;-62
2023/07/24 04:26:49;;;;;;;3.40;3.10;;;;;;;;;;5119961;28;20203;-62
2023/07/24 04:29:16;;;;;;;3.33;3.03;;;;;;;;;;5119557;28;20231;-62
2023/07/24 04:31:43;;;;;;;3.13;2.83;;;;;;;;;;5119388;28;20583;-62
2023/07/24 04:34:11;;;;;;;3.05;2.75;;;;;;;;;;5118748;28;20514;-62
2023/07/24 04:36:40;;;;;;;3.88;3.00;;;;;;;;;;5119308;28;20207;-62
2023/07/24 04:39:07;;;;;;;3.20;2.90;;;;;;;;;;5119448;28;20610;-62
2023/07/24 04:41:35;;;;;;;3.17;2.88;;;;;;;;;;5119589;28;20202;-62
2023/07/24 04:44:02;;;;;;;2.97;2.78;;;;;;;;;;5119679;28;20487;-63
2023/07/24 04:46:30;;;;;;;3.20;2.90;;;;;;;;;;5118894;28;20203;-62
2023/07/24 04:48:57;;;;;;;3.35;3.05;;;;;;;;;;5119423;28;20227;-62
2023/07/24 04:51:24;;;;;;;3.60;3.30;;;;;;;;;;5119262;28;20701;-62
2023/07/24 04:53:55;;;;;;;3.47;3.17;;;;;;;;;;5118767;28;20257;-62
2023/07/24 04:56:22;;;;;;;3.40;3.10;;;;;;;;;;5118941;28;20229;-62
2023/07/24 04:58:50;;;;;;;3.45;3.15;;;;;;;;;;5118689;28;20218;-62
2023/07/24 05:01:17;;;;;;;3.13;2.83;;;;;;;;;;5119152;28;20214;-62
2023/07/24 05:03:44;;;;;;;3.38;3.08;;;;;;;;;;5118694;28;20260;-62
2023/07/24 05:06:12;;;;;;;3.30;3.00;;;;;;;;;;5117841;28;20264;-62
2023/07/24 05:08:40;;;;;;;4.15;3.75;;;;;;;;;;5118853;28;20260;-63
2023/07/24 05:11:09;;;;;;;5.40;4.70;;;;;;;;;;5118564;28;20234;-62
2023/07/24 05:13:36;;;;;;;9.48;7.15;;;;;;;;;;5118337;28;20264;-62
2023/07/24 05:16:03;;;;;;;10.20;8.48;;;;;;;;;;5118280;28;20213;-62
2023/07/24 05:18:31;;;;;;;17.75;10.35;;;;;;;;;;5117148;28;20245;-62
2023/07/24 05:20:58;;;;;;;15.35;12.05;;;;;;;;;;5117724;28;20203;-62
2023/07/24 05:23:26;;;;;;;18.38;12.70;;;;;;;;;;5118202;28;20277;-62
2023/07/24 05:25:58;;;;;;;18.67;13.25;;;;;;;;;;5118360;28;20532;-62
2023/07/24 05:28:27;;;;;;;21.60;14.45;;;;;;;;;;5117996;28;20210;-62
2023/07/24 05:30:55;;;;;;;22.83;18.25;;;;;;;;;;5117597;28;20206;-62
2023/07/24 05:33:23;;;;;;;28.60;21.05;;;;;;;;;;5117948;28;20639;-62
2023/07/24 05:35:50;;;;;;;30.15;20.98;;;;;;;;;;5117580;28;20268;-63
2023/07/24 05:38:18;;;;;;;30.60;22.27;;;;;;;;;;5117808;28;20202;-62
2023/07/24 05:40:46;;;;;;;30.77;21.90;;;;;;;;;;5117293;28;20591;-63
2023/07/24 05:43:14;;;;;;;30.25;21.52;;;;;;;;;;5117295;28;20217;-63
2023/07/24 05:45:43;;;;;;;32.78;22.45;;;;;;;;;;5117903;28;20280;-62
2023/07/24 05:48:10;;;;;;;33.15;23.00;;;;;;;;;;5117663;28;20283;-62
2023/07/24 05:50:38;;;;;;;29.95;21.92;;;;;;;;;;5117176;28;20238;-62
2023/07/24 05:53:05;;;;;;;27.33;20.85;;;;;;;;;;5117482;28;20526;-62
2023/07/24 05:55:32;;;;;;;30.15;21.67;;;;;;;;;;5116447;28;20246;-62
2023/07/24 05:58:00;;;;;;;32.25;21.13;;;;;;;;;;5117252;28;20202;-62
2023/07/24 06:00:27;;;;;;;30.20;19.55;;;;;;;;;;5117287;28;20230;-62
2023/07/24 06:02:56;;;;;;;26.63;19.15;;;;;;;;;;5116454;28;20263;-63
2023/07/24 06:05:24;;;;;;;26.98;19.05;;;;;;;;;;5117178;28;20233;-62
2023/07/24 06:07:51;;;;;;;24.80;19.58;;;;;;;;;;5117559;28;20209;-67
2023/07/24 06:10:19;;;;;;;26.92;18.52;;;;;;;;;;5117386;28;20290;-62
2023/07/24 06:12:47;;;;;;;23.27;18.13;;;;;;;;;;5116572;28;20207;-62
2023/07/24 06:15:14;;;;;;;24.85;18.20;;;;;;;;;;5116647;28;20272;-62
2023/07/24 06:17:42;;;;;;;24.45;17.17;;;;;;;;;;5116675;28;20241;-62
2023/07/24 06:20:11;;;;;;;25.33;18.13;;;;;;;;;;5117425;28;20227;-62
2023/07/24 06:22:39;;;;;;;25.02;17.25;;;;;;;;;;5117029;28;20202;-62
2023/07/24 06:25:06;;;;;;;24.98;17.30;;;;;;;;;;5116327;28;20213;-62
2023/07/24 06:27:34;;;;;;;21.67;16.55;;;;;;;;;;5116619;28;20246;-63
2023/07/24 06:30:02;;;;;;;24.30;15.55;;;;;;;;;;5117293;28;20530;-62
2023/07/24 06:32:29;;;;;;;18.50;12.65;;;;;;;;;;5116846;28;20253;-62
2023/07/24 06:34:57;;;;;;;16.63;11.63;;;;;;;;;;5116326;28;20234;-62
2023/07/24 06:37:25;;;;;;;14.38;10.95;;;;;;;;;;5116409;28;20202;-62
2023/07/24 06:39:53;;;;;;;14.98;11.40;;;;;;;;;;5116466;28;20262;-62
2023/07/24 06:42:21;;;;;;;13.48;10.07;;;;;;;;;;5116856;28;20226;-62
2023/07/24 06:44:48;;;;;;;13.55;9.55;;;;;;;;;;5117024;28;20256;-62
2023/07/24 06:47:15;;;;;;;10.25;8.80;;;;;;;;;;5111457;28;20203;-62
2023/07/24 06:49:43;;;;;;;9.73;8.05;;;;;;;;;;5095417;28;20238;-62
2023/07/24 06:52:10;;;;;;;8.68;7.78;;;;;;;;;;5096024;28;20296;-63
2023/07/24 06:54:39;;;;;;;9.27;7.45;;;;;;;;;;5105560;28;20235;-62
2023/07/24 06:57:06;;;;;;;9.95;7.57;;;;;;;;;;5116565;28;20313;-62
2023/07/24 06:59:34;;;;;;;8.18;7.05;;;;;;;;;;5115534;28;20225;-62
2023/07/24 07:02:02;;;;;;;7.60;6.85;;;;;;;;;;5116145;28;20205;-62
2023/07/24 07:04:29;;;;;;;9.10;7.22;;;;;;;;;;5116166;28;20243;-63
2023/07/24 07:06:57;;;;;;;8.15;6.78;;;;;;;;;;5117231;28;20210;-62
2023/07/24 07:09:24;;;;;;;8.57;6.88;;;;;;;;;;5120763;28;20537;-62
2023/07/24 07:11:53;;;;;;;7.65;6.50;;;;;;;;;;5103735;28;20578;-62
2023/07/24 07:14:21;;;;;;;6.78;6.07;;;;;;;;;;5099168;28;20327;-63
2023/07/24 07:16:48;;;;;;;8.35;6.93;;;;;;;;;;5099707;28;20268;-62
2023/07/24 07:19:16;;;;;;;7.00;6.30;;;;;;;;;;5103084;28;20264;-63
2023/07/24 07:21:43;;;;;;;7.03;6.32;;;;;;;;;;5120529;28;20199;-63
2023/07/24 07:24:11;;;;;;;8.10;6.22;;;;;;;;;;5119957;28;20250;-62
2023/07/24 07:26:39;;;;;;;6.25;5.65;;;;;;;;;;5105803;28;20247;-63
2023/07/24 07:29:07;;;;;;;6.32;5.63;;;;;;;;;;5099230;28;20196;-62
2023/07/24 07:31:35;;;;;;;7.07;6.15;;;;;;;;;;5117471;28;20225;-62
2023/07/24 07:34:02;;;;;;;6.35;5.75;;;;;;;;;;5119588;28;20452;-62
2023/07/24 07:36:30;;;;;;;7.28;5.70;;;;;;;;;;5119652;28;20252;-62
2023/07/24 07:38:57;;;;;;;6.07;5.47;;;;;;;;;;5118951;28;20209;-62
2023/07/24 07:41:24;;;;;;;5.50;5.00;;;;;;;;;;5099308;28;20231;-62
2023/07/24 07:43:52;;;;;;;6.28;5.63;;;;;;;;;;5099389;28;20317;-63
2023/07/24 07:46:21;;;;;;;5.50;5.00;;;;;;;;;;5099446;28;20294;-62
2023/07/24 07:48:49;;;;;;;5.30;4.90;;;;;;;;;;5099071;28;20293;-62
2023/07/24 07:51:16;;;;;;;5.32;4.82;;;;;;;;;;5098676;28;20208;-62
2023/07/24 07:53:43;;;;;;;5.70;4.68;;;;;;;;;;5098670;28;20296;-62
2023/07/24 07:56:11;;;;;;;4.80;4.28;;;;;;;;;;5098710;28;20596;-62
2023/07/24 07:58:38;;;;;;;4.40;4.00;;;;;;;;;;5099092;28;20195;-62
2023/07/24 08:01:06;;;;;;;5.50;5.00;;;;;;;;;;5099985;28;20227;-62
2023/07/24 08:03:35;;;;;;;4.82;4.40;;;;;;;;;;5118756;28;20187;-62
2023/07/24 08:06:03;;;;;;;4.80;4.30;;;;;;;;;;5117395;28;20265;-62
2023/07/24 08:08:30;;;;;;;5.43;4.57;;;;;;;;;;5118039;28;20676;-63
2023/07/24 08:10:59;;;;;;;4.93;4.20;;;;;;;;;;5118185;28;20490;-62
2023/07/24 08:13:26;;;;;;;4.32;3.90;;;;;;;;;;5118382;28;20237;-62
2023/07/24 08:15:54;;;;;;;5.13;4.57;;;;;;;;;;5117776;28;20210;-62
2023/07/24 08:18:21;;;;;;;6.10;4.32;;;;;;;;;;5117595;28;20285;-62
2023/07/24 08:20:50;;;;;;;5.30;4.53;;;;;;;;;;5118483;28;20337;-62
2023/07/24 08:23:17;;;;;;;4.80;4.35;;;;;;;;;;5118776;28;20203;-62
2023/07/24 08:25:52;;;;;;;4.85;4.28;;;;;;;;;;5117688;28;20301;-62
2023/07/24 08:28:20;;;;;;;5.90;5.30;;;;;;;;;;5117774;28;20234;-62
2023/07/24 08:30:48;;;;;;;6.55;5.90;;;;;;;;;;5118810;28;20195;-62
2023/07/24 08:33:15;;;;;;;6.10;5.50;;;;;;;;;;5118234;28;20657;-62
2023/07/24 08:35:42;;;;;;;6.57;5.85;;;;;;;;;;5109470;28;20254;-62
2023/07/24 08:38:11;;;;;;;7.10;6.40;;;;;;;;;;5118481;28;20257;-62
2023/07/24 08:40:39;;;;;;;6.88;6.18;;;;;;;;;;5118350;28;20234;-62
2023/07/24 08:43:06;;;;;;;6.63;5.90;;;;;;;;;;5118479;28;20261;-62
2023/07/24 08:45:34;;;;;;;7.20;6.45;;;;;;;;;;5117247;28;20258;-62
2023/07/24 08:48:02;;;;;;;7.38;6.60;;;;;;;;;;5116963;28;20191;-62
2023/07/24 08:50:31;;;;;;;7.25;6.45;;;;;;;;;;5117860;28;20248;-62
2023/07/24 08:52:58;;;;;;;7.45;6.55;;;;;;;;;;5118460;28;20268;-62
2023/07/24 08:55:27;;;;;;;7.20;6.45;;;;;;;;;;5118175;28;20255;-62
2023/07/24 08:57:55;;;;;;;7.13;6.43;;;;;;;;;;5116819;28;20263;-63
2023/07/24 09:00:22;;;;;;;7.00;6.30;;;;;;;;;;5117316;28;20317;-63
2023/07/24 09:02:50;;;;;;;7.65;6.85;;;;;;;;;;5117796;28;20343;-62
2023/07/24 09:05:17;;;;;;;7.78;6.35;;;;;;;;;;5117321;28;20603;-62
2023/07/24 09:07:45;;;;;;;7.05;6.35;;;;;;;;;;5117670;28;20194;-62
2023/07/24 09:10:13;;;;;;;6.88;6.20;;;;;;;;;;5116927;28;20203;-62
2023/07/24 09:12:43;;;;;;;7.95;6.70;;;;;;;;;;5099517;28;20285;-62
2023/07/24 09:15:11;;;;;;;7.45;6.75;;;;;;;;;;5096270;28;20204;-62
2023/07/24 09:17:49;;;;;;;7.35;6.65;;;;;;;;;;5096556;28;20206;-62
2023/07/24 09:20:16;;;;;;;7.18;6.22;;;;;;;;;;5095906;28;20219;-62
2023/07/24 09:22:50;;;;;;;7.88;6.47;;;;;;;;;;5096806;28;20204;-65
2023/07/24 09:25:17;;;;;;;7.72;6.50;;;;;;;;;;5096419;28;20246;-63
2023/07/24 09:27:46;;;;;;;7.70;6.68;;;;;;;;;;5096372;28;20204;-62
2023/07/24 09:30:14;;;;;;;8.15;6.90;;;;;;;;;;5095861;28;20199;-62
2023/07/24 09:32:42;;;;;;;6.90;6.18;;;;;;;;;;5096704;28;20508;-62
2023/07/24 09:35:18;;;;;;;6.70;6.00;;;;;;;;;;5096375;28;20231;-63
2023/07/24 09:37:46;;;;;;;6.95;6.18;;;;;;;;;;5096906;28;20207;-63
2023/07/24 09:40:16;;;;;;;7.55;5.97;;;;;;;;;;5096288;28;20675;-62
2023/07/24 09:42:43;;;;;;;6.75;6.03;;;;;;;;;;5095691;28;20307;-63
2023/07/24 09:45:12;;;;;;;7.50;6.50;;;;;;;;;;5096012;28;20267;-62
2023/07/24 09:47:41;;;;;;;6.88;6.18;;;;;;;;;;5095654;28;20200;-62
2023/07/24 09:50:09;;;;;;;6.93;6.32;;;;;;;;;;5095419;28;20260;-62
2023/07/24 09:52:38;;;;;;;6.70;6.10;;;;;;;;;;5095080;28;20204;-63
2023/07/24 09:55:09;;;;;;;6.78;6.07;;;;;;;;;;5095376;28;20200;-62
2023/07/24 09:57:37;;;;;;;7.03;6.32;;;;;;;;;;5096015;28;20621;-62
2023/07/24 10:00:07;;;;;;;7.45;6.20;;;;;;;;;;5096249;28;20242;-62
2023/07/24 10:02:36;;;;;;;7.68;6.88;;;;;;;;;;5095466;28;20196;-62
2023/07/24 10:05:03;;;;;;;7.45;6.72;;;;;;;;;;5095597;28;20247;-62
2023/07/24 10:07:31;;;;;;;7.97;7.07;;;;;;;;;;5095589;28;20239;-62
2023/07/24 10:09:59;;;;;;;7.65;6.90;;;;;;;;;;5094957;28;20321;-62
2023/07/24 10:12:30;;;;;;;6.70;6.10;;;;;;;;;;5094999;28;20202;-62
2023/07/24 10:14:57;;;;;;;7.13;6.43;;;;;;;;;;5095157;28;20703;-62
2023/07/24 10:17:39;;;;;;;7.47;6.68;;;;;;;;;;5094538;28;20227;-62
2023/07/24 10:20:07;;;;;;;7.47;6.80;;;;;;;;;;5095529;28;20518;-62
2023/07/24 10:22:35;;;;;;;8.90;7.03;;;;;;;;;;5095652;28;20215;-62
2023/07/24 10:25:03;;;;;;;8.18;7.38;;;;;;;;;;5095356;28;20288;-62
2023/07/24 10:27:31;;;;;;;7.82;7.10;;;;;;;;;;5094261;28;20304;-62
2023/07/24 10:30:02;;;;;;;8.10;7.30;;;;;;;;;;5095138;28;20212;-62
2023/07/24 10:32:30;;;;;;;8.35;6.80;;;;;;;;;;5095221;28;20260;-62
2023/07/24 10:34:59;;;;;;;8.18;7.30;;;;;;;;;;5094871;28;20342;-62
2023/07/24 10:37:34;;;;;;;7.80;7.00;;;;;;;;;;5095223;28;20204;-62
2023/07/24 10:40:03;;;;;;;8.70;7.07;;;;;;;;;;5095160;28;20195;-63
2023/07/24 10:42:33;;;;;;;7.50;6.72;;;;;;;;;;5100710;28;20291;-62
2023/07/24 10:45:05;;;;;;;9.15;7.00;;;;;;;;;;5101583;28;20199;-62
2023/07/24 10:47:33;;;;;;;8.93;7.35;;;;;;;;;;5101543;28;20217;-62
2023/07/24 10:50:02;;;;;;;9.18;7.30;;;;;;;;;;5100940;28;20195;-62
2023/07/24 10:52:30;;;;;;;8.77;7.40;;;;;;;;;;5101595;28;20211;-62
2023/07/24 10:54:57;;;;;;;8.90;7.68;;;;;;;;;;5101065;28;20237;-62
2023/07/24 10:57:27;;;;;;;8.57;7.07;;;;;;;;;;5101159;28;20231;-63
2023/07/24 10:59:55;;;;;;;8.38;7.07;;;;;;;;;;5102342;28;20211;-62
2023/07/24 11:02:23;;;;;;;8.45;7.15;;;;;;;;;;5101093;28;20219;-62
2023/07/24 11:04:50;;;;;;;8.15;6.80;;;;;;;;;;5102131;28;20614;-62
2023/07/24 11:07:19;;;;;;;7.63;6.75;;;;;;;;;;5102512;28;20532;-62
2023/07/24 11:09:47;;;;;;;7.40;6.60;;;;;;;;;;5102034;28;20572;-62
2023/07/24 11:12:16;;;;;;;7.97;7.10;;;;;;;;;;5101745;28;20583;-62
2023/07/24 11:14:50;;;;;;;7.28;6.57;;;;;;;;;;5101310;28;20203;-62
2023/07/24 11:17:18;;;;;;;7.05;6.35;;;;;;;;;;5101252;28;20198;-62
2023/07/24 11:19:45;;;;;;;7.13;6.43;;;;;;;;;;5101733;28;20245;-63
2023/07/24 11:22:13;;;;;;;6.88;6.18;;;;;;;;;;5101916;28;20345;-62
2023/07/24 11:24:45;;;;;;;7.57;6.72;;;;;;;;;;5101430;28;20277;-66
2023/07/24 11:27:15;;;;;;;6.82;6.13;;;;;;;;;;5102186;28;20235;-62
2023/07/24 11:29:42;;;;;;;7.38;6.68;;;;;;;;;;5101636;28;20208;-62
2023/07/24 11:32:10;;;;;;;7.28;6.40;;;;;;;;;;5101732;28;20196;-62
2023/07/24 11:34:38;;;;;;;6.93;6.22;;;;;;;;;;5101462;28;20243;-62
2023/07/24 11:37:06;;;;;;;7.18;6.32;;;;;;;;;;5101756;28;20261;-63
2023/07/24 11:39:34;;;;;;;9.13;6.75;;;;;;;;;;5102050;28;20517;-62
2023/07/24 11:42:04;;;;;;;7.68;6.97;;;;;;;;;;5101160;28;20318;-62
2023/07/24 11:44:31;;;;;;;7.72;6.55;;;;;;;;;;5100758;28;20265;-62
2023/07/24 11:47:05;;;;;;;7.32;6.25;;;;;;;;;;5102221;28;20311;-62
2023/07/24 11:49:33;;;;;;;6.93;6.10;;;;;;;;;;5101749;28;20290;-63
2023/07/24 11:52:04;;;;;;;6.93;6.32;;;;;;;;;;5101633;28;20332;-62
2023/07/24 11:54:32;;;;;;;6.85;6.15;;;;;;;;;;5097016;28;20284;-62
2023/07/24 11:56:59;;;;;;;6.60;5.75;;;;;;;;;;5097345;28;20214;-62
2023/07/24 11:59:28;;;;;;;7.03;5.80;;;;;;;;;;5098025;28;20311;-62
2023/07/24 12:01:56;;;;;;;6.75;6.07;;;;;;;;;;5097728;28;20234;-62
2023/07/24 12:04:23;;;;;;;6.78;5.97;;;;;;;;;;5097393;28;20278;-62
2023/07/24 12:06:51;;;;;;;6.40;5.80;;;;;;;;;;5097626;28;20277;-62
2023/07/24 12:09:18;;;;;;;6.70;6.07;;;;;;;;;;5097908;28;20286;-62
2023/07/24 12:11:46;;;;;;;6.93;6.20;;;;;;;;;;5097216;28;20249;-62
2023/07/24 12:14:15;;;;;;;8.45;6.40;;;;;;;;;;5098189;28;20199;-62
2023/07/24 12:16:43;;;;;;;6.68;5.97;;;;;;;;;;5097233;28;20199;-63
2023/07/24 12:19:11;;;;;;;8.27;7.15;;;;;;;;;;5097608;28;20662;-63
2023/07/24 12:21:38;;;;;;;7.55;6.80;;;;;;;;;;5095549;28;20321;-62
2023/07/24 12:24:06;;;;;;;7.07;6.38;;;;;;;;;;5097444;28;20204;-63
2023/07/24 12:26:33;;;;;;;6.97;6.28;;;;;;;;;;5097262;28;20634;-62
2023/07/24 12:29:00;;;;;;;6.10;5.50;;;;;;;;;;5097357;28;20219;-62
2023/07/24 12:31:28;;;;;;;6.53;5.85;;;;;;;;;;5097173;28;20239;-62
2023/07/24 12:33:57;;;;;;;6.90;6.25;;;;;;;;;;5096774;28;20286;-62
2023/07/24 12:36:24;;;;;;;6.70;6.10;;;;;;;;;;5096788;28;20643;-63
2023/07/24 12:38:52;;;;;;;6.55;5.82;;;;;;;;;;5097729;28;20231;-62
2023/07/24 12:41:19;;;;;;;7.03;6.32;;;;;;;;;;5096668;28;20268;-62
2023/07/24 12:43:47;;;;;;;6.95;6.25;;;;;;;;;;5096412;28;20199;-63
2023/07/24 12:46:14;;;;;;;6.90;6.20;;;;;;;;;;5097101;28;20294;-62
2023/07/24 12:48:41;;;;;;;7.07;6.47;;;;;;;;;;5096855;28;20599;-63
2023/07/24 12:51:11;;;;;;;7.13;6.47;;;;;;;;;;5096768;28;20227;-62
2023/07/24 12:53:38;;;;;;;7.47;6.78;;;;;;;;;;5096590;28;20195;-63
2023/07/24 12:56:05;;;;;;;6.72;6.13;;;;;;;;;;5096300;28;20239;-63
2023/07/24 12:58:33;;;;;;;7.75;6.82;;;;;;;;;;5096554;28;20203;-63
2023/07/24 13:01:00;;;;;;;7.60;6.88;;;;;;;;;;5095612;28;20239;-62
2023/07/24 13:03:28;;;;;;;8.00;7.20;;;;;;;;;;5095827;28;20249;-63
2023/07/24 13:05:55;;;;;;;7.07;6.45;;;;;;;;;;5094886;28;20235;-63
2023/07/24 13:08:24;;;;;;;7.28;6.57;;;;;;;;;;5095648;28;20253;-62
2023/07/24 13:10:52;;;;;;;7.28;6.63;;;;;;;;;;5096483;28;20200;-62
2023/07/24 13:13:19;;;;;;;7.45;6.75;;;;;;;;;;5096757;28;20298;-63
2023/07/24 13:15:47;;;;;;;7.60;6.80;;;;;;;;;;5095889;28;20298;-62
2023/07/24 13:18:14;;;;;;;8.05;6.70;;;;;;;;;;5096442;28;20211;-62
2023/07/24 13:20:42;;;;;;;8.00;7.30;;;;;;;;;;5096171;28;20210;-63
2023/07/24 13:23:09;;;;;;;8.00;7.20;;;;;;;;;;5096423;28;20330;-63
2023/07/24 13:25:38;;;;;;;8.55;7.70;;;;;;;;;;5095338;28;20204;-63
2023/07/24 13:28:05;;;;;;;8.82;8.00;;;;;;;;;;5095541;28;20214;-62
2023/07/24 13:30:33;;;;;;;9.32;8.43;;;;;;;;;;5095421;28;20234;-63
2023/07/24 13:33:00;;;;;;;8.98;7.60;;;;;;;;;;5095509;28;20573;-62
2023/07/24 13:35:28;;;;;;;8.27;7.53;;;;;;;;;;5095744;28;20341;-63
2023/07/24 13:37:55;;;;;;;8.75;7.95;;;;;;;;;;5095603;28;20210;-62
2023/07/24 13:40:22;;;;;;;8.20;7.40;;;;;;;;;;5103037;28;20231;-62
2023/07/24 13:42:51;;;;;;;8.52;7.72;;;;;;;;;;5116209;28;20634;-63
2023/07/24 13:45:19;;;;;;;8.90;8.00;;;;;;;;;;5116269;28;20205;-62
2023/07/24 13:47:46;;;;;;;8.60;7.80;;;;;;;;;;5115690;28;20199;-63
2023/07/24 13:50:14;;;;;;;8.38;7.57;;;;;;;;;;5115957;28;20207;-62
2023/07/24 13:52:41;;;;;;;8.88;7.93;;;;;;;;;;5115150;28;20225;-62
2023/07/24 13:55:09;;;;;;;7.72;7.03;;;;;;;;;;5115577;28;20203;-63
2023/07/24 13:57:36;;;;;;;8.85;7.88;;;;;;;;;;5114623;28;20195;-63
2023/07/24 14:00:06;;;;;;;7.85;7.05;;;;;;;;;;5115149;28;20609;-62
2023/07/24 14:02:33;;;;;;;7.28;6.63;;;;;;;;;;5115703;28;20230;-62
2023/07/24 14:05:01;;;;;;;8.10;7.30;;;;;;;;;;5116125;28;20199;-62
2023/07/24 14:07:28;;;;;;;8.73;7.68;;;;;;;;;;5114952;28;20264;-63
2023/07/24 14:09:56;;;;;;;9.50;8.00;;;;;;;;;;5115317;28;20556;-63
2023/07/24 14:12:23;;;;;;;8.40;7.60;;;;;;;;;;5115542;28;20293;-63
2023/07/24 14:14:51;;;;;;;7.82;7.13;;;;;;;;;;5116417;28;20333;-62
2023/07/24 14:17:19;;;;;;;8.00;7.20;;;;;;;;;;5115378;28;20201;-62
2023/07/24 14:19:47;;;;;;;8.07;7.28;;;;;;;;;;5114659;28;20444;-63
2023/07/24 14:22:14;;;;;;;8.00;7.20;;;;;;;;;;5114981;28;20227;-63
2023/07/24 14:24:42;;;;;;;8.13;7.32;;;;;;;;;;5115171;28;20256;-62
2023/07/24 14:27:09;;;;;;;8.20;7.40;;;;;;;;;;5114791;28;20234;-62
2023/07/24 14:29:37;;;;;;;8.60;7.80;;;;;;;;;;5115188;28;20209;-62
2023/07/24 14:32:04;;;;;;;7.90;7.10;;;;;;;;;;5115113;28;20682;-63
2023/07/24 14:34:33;;;;;;;8.15;7.35;;;;;;;;;;5115304;28;20227;-62
2023/07/24 14:37:01;;;;;;;7.97;7.18;;;;;;;;;;5115491;28;20310;-63
2023/07/24 14:39:28;;;;;;;8.45;7.57;;;;;;;;;;5114302;28;20222;-63
2023/07/24 14:41:55;;;;;;;8.23;7.43;;;;;;;;;;5115071;28;20318;-62
2023/07/24 14:44:23;;;;;;;8.48;7.68;;;;;;;;;;5114800;28;20239;-62
2023/07/24 14:46:50;;;;;;;8.48;7.68;;;;;;;;;;5115832;28;20211;-63